createdAt,value
2018-08-11T00:00:29.841Z,0
2018-08-11T00:01:29.823Z,0
2018-08-11T00:02:29.830Z,0
2018-08-11T00:03:29.750Z,0
2018-08-11T00:04:29.745Z,0
2018-08-11T00:05:29.705Z,0
2018-08-11T00:06:29.779Z,0
2018-08-11T00:07:29.750Z,0
2018-08-11T00:08:29.830Z,0
2018-08-11T00:09:29.748Z,0
2018-08-11T00:10:29.773Z,0
2018-08-11T00:11:29.779Z,0
2018-08-11T00:12:29.849Z,0
2018-08-11T00:13:29.787Z,0
2018-08-11T00:14:29.787Z,0
2018-08-11T00:15:29.853Z,0
2018-08-11T00:16:29.797Z,0
2018-08-11T00:17:29.853Z,0
2018-08-11T00:18:29.852Z,0
2018-08-11T00:19:29.855Z,0
2018-08-11T00:20:29.786Z,0
2018-08-11T00:21:29.751Z,0
2018-08-11T00:22:29.846Z,0
2018-08-11T00:23:29.751Z,0
2018-08-11T00:24:29.758Z,0
2018-08-11T00:25:29.764Z,0
2018-08-11T00:26:29.809Z,0
2018-08-11T00:27:29.758Z,0
2018-08-11T00:28:29.765Z,0
2018-08-11T00:29:29.763Z,0
2018-08-11T00:30:29.763Z,0
2018-08-11T00:31:29.797Z,0
2018-08-11T00:32:29.866Z,0
2018-08-11T00:33:29.797Z,0
2018-08-11T00:34:29.867Z,0
2018-08-11T00:35:29.792Z,0
2018-08-11T00:36:29.881Z,0
2018-08-11T00:37:29.795Z,0
2018-08-11T00:38:29.867Z,0
2018-08-11T00:39:29.798Z,0
2018-08-11T00:40:29.876Z,0
2018-08-11T00:41:29.827Z,0
2018-08-11T00:42:29.830Z,0
2018-08-11T00:43:29.756Z,0
2018-08-11T00:44:29.740Z,0
2018-08-11T00:45:29.820Z,0
2018-08-11T00:46:29.835Z,0
2018-08-11T00:47:29.802Z,0
2018-08-11T00:48:29.740Z,0
2018-08-11T00:49:29.836Z,0
2018-08-11T00:50:29.805Z,0
2018-08-11T00:51:29.806Z,0
2018-08-11T00:52:29.877Z,0
2018-08-11T00:53:29.812Z,0
2018-08-11T00:54:29.833Z,0
2018-08-11T00:55:29.808Z,0
2018-08-11T00:56:29.881Z,0
2018-08-11T00:57:29.910Z,0
2018-08-11T00:58:29.810Z,0
2018-08-11T00:59:29.884Z,0
2018-08-11T01:00:29.857Z,0
2018-08-11T01:01:29.814Z,0
2018-08-11T01:02:29.979Z,0
2018-08-11T01:03:29.815Z,0
2018-08-11T01:04:29.894Z,0
2018-08-11T01:05:29.817Z,0
2018-08-11T01:06:29.888Z,0
2018-08-11T01:07:29.823Z,0
2018-08-11T01:08:29.890Z,0
2018-08-11T01:09:29.825Z,0
2018-08-11T01:10:29.896Z,0
2018-08-11T01:11:29.749Z,0
2018-08-11T01:12:29.860Z,0
2018-08-11T01:13:29.827Z,0
2018-08-11T01:14:29.878Z,0
2018-08-11T01:15:29.866Z,0
2018-08-11T01:16:29.843Z,0
2018-08-11T01:17:29.861Z,0
2018-08-11T01:18:29.762Z,0
2018-08-11T01:19:29.863Z,0
2018-08-11T01:20:29.797Z,0
2018-08-11T01:21:29.898Z,0
2018-08-11T01:22:29.828Z,0
2018-08-11T01:23:29.899Z,0
2018-08-11T01:24:29.832Z,0
2018-08-11T01:25:29.901Z,0
2018-08-11T01:26:29.857Z,0
2018-08-11T01:27:29.837Z,0
2018-08-11T01:28:29.904Z,0
2018-08-11T01:29:29.834Z,0
2018-08-11T01:30:29.831Z,0
2018-08-11T01:31:29.906Z,0
2018-08-11T01:32:29.922Z,0
2018-08-11T01:33:29.906Z,0
2018-08-11T01:34:29.838Z,0
2018-08-11T01:35:29.873Z,0
2018-08-11T01:36:29.839Z,0
2018-08-11T01:37:29.918Z,0
2018-08-11T01:38:29.841Z,0
2018-08-11T01:39:29.922Z,0
2018-08-11T01:40:29.843Z,0
2018-08-11T01:41:29.859Z,0
2018-08-11T01:42:29.871Z,0
2018-08-11T01:43:29.822Z,0
2018-08-11T01:44:29.899Z,0
2018-08-11T01:45:29.946Z,0
2018-08-11T01:46:29.894Z,0
2018-08-11T01:47:29.843Z,0
2018-08-11T01:48:29.945Z,0
2018-08-11T01:49:29.868Z,0
2018-08-11T01:50:29.845Z,0
2018-08-11T01:51:29.889Z,0
2018-08-11T01:52:29.980Z,0
2018-08-11T01:53:29.821Z,0
2018-08-11T01:54:29.868Z,0
2018-08-11T01:55:29.914Z,0
2018-08-11T01:56:29.888Z,0
2018-08-11T01:57:29.907Z,0
2018-08-11T01:58:29.870Z,0
2018-08-11T01:59:29.911Z,0
2018-08-11T02:00:29.789Z,0
2018-08-11T02:01:29.928Z,0
2018-08-11T02:02:29.857Z,0
2018-08-11T02:03:29.930Z,0
2018-08-11T02:04:29.928Z,0
2018-08-11T02:05:29.857Z,0
2018-08-11T02:06:29.933Z,0
2018-08-11T02:07:29.862Z,0
2018-08-11T02:08:29.933Z,0
2018-08-11T02:09:29.864Z,0
2018-08-11T02:10:29.933Z,0
2018-08-11T02:11:29.869Z,0
2018-08-11T02:12:29.935Z,0
2018-08-11T02:13:29.863Z,0
2018-08-11T02:14:29.939Z,0
2018-08-11T02:15:29.867Z,0
2018-08-11T02:16:29.868Z,0
2018-08-11T02:17:29.868Z,0
2018-08-11T02:18:29.940Z,0
2018-08-11T02:19:29.937Z,0
2018-08-11T02:20:29.870Z,0
2018-08-11T02:21:29.940Z,0
2018-08-11T02:22:29.870Z,0
2018-08-11T02:23:29.945Z,0
2018-08-11T02:24:29.869Z,0
2018-08-11T02:25:29.945Z,0
2018-08-11T02:26:29.872Z,0
2018-08-11T02:27:29.945Z,0
2018-08-11T02:28:29.877Z,0
2018-08-11T02:29:29.825Z,0
2018-08-11T02:30:29.878Z,0
2018-08-11T02:31:29.880Z,0
2018-08-11T02:32:29.919Z,0
2018-08-11T02:33:29.881Z,0
2018-08-11T02:34:30.038Z,0
2018-08-11T02:35:29.955Z,0
2018-08-11T02:36:29.963Z,0
2018-08-11T02:37:29.894Z,0
2018-08-11T02:38:29.886Z,0
2018-08-11T02:39:29.953Z,0
2018-08-11T02:40:29.879Z,0
2018-08-11T02:41:29.956Z,0
2018-08-11T02:42:29.958Z,0
2018-08-11T02:43:29.886Z,0
2018-08-11T02:44:29.956Z,0
2018-08-11T02:45:29.885Z,0
2018-08-11T02:46:29.916Z,0
2018-08-11T02:47:29.960Z,0
2018-08-11T02:48:29.962Z,0
2018-08-11T02:49:29.887Z,0
2018-08-11T02:50:29.897Z,0
2018-08-11T02:51:29.961Z,0
2018-08-11T02:52:29.899Z,0
2018-08-11T02:53:29.965Z,0
2018-08-11T02:54:29.889Z,0
2018-08-11T02:55:29.963Z,0
2018-08-11T02:56:29.894Z,0
2018-08-11T02:57:29.966Z,0
2018-08-11T02:58:29.897Z,0
2018-08-11T02:59:29.898Z,0
2018-08-11T03:00:29.971Z,0
2018-08-11T03:01:29.852Z,0
2018-08-11T03:02:29.913Z,0
2018-08-11T03:03:29.867Z,0
2018-08-11T03:04:29.880Z,0
2018-08-11T03:05:29.863Z,0
2018-08-11T03:06:29.920Z,0
2018-08-11T03:07:29.834Z,0
2018-08-11T03:08:29.938Z,0
2018-08-11T03:09:29.925Z,0
2018-08-11T03:10:29.858Z,0
2018-08-11T03:11:29.937Z,0
2018-08-11T03:12:29.824Z,0
2018-08-11T03:13:29.918Z,0
2018-08-11T03:14:29.923Z,0
2018-08-11T03:15:29.994Z,0
2018-08-11T03:16:29.830Z,0
2018-08-11T03:17:29.882Z,0
2018-08-11T03:18:29.993Z,0
2018-08-11T03:19:29.920Z,0
2018-08-11T03:20:29.952Z,0
2018-08-11T03:21:29.877Z,0
2018-08-11T03:22:29.910Z,0
2018-08-11T03:23:29.983Z,0
2018-08-11T03:24:29.914Z,0
2018-08-11T03:25:29.986Z,0
2018-08-11T03:26:29.918Z,0
2018-08-11T03:27:29.986Z,0
2018-08-11T03:28:29.987Z,0
2018-08-11T03:29:29.919Z,0
2018-08-11T03:30:29.989Z,0
2018-08-11T03:31:29.984Z,0
2018-08-11T03:32:29.936Z,0
2018-08-11T03:33:29.854Z,0
2018-08-11T03:34:29.961Z,0
2018-08-11T03:35:29.958Z,0
2018-08-11T03:36:29.940Z,0
2018-08-11T03:37:29.893Z,0
2018-08-11T03:38:29.964Z,0
2018-08-11T03:39:29.982Z,0
2018-08-11T03:40:29.855Z,0
2018-08-11T03:41:29.921Z,0
2018-08-11T03:42:30.003Z,0
2018-08-11T03:43:29.954Z,0
2018-08-11T03:44:29.998Z,0
2018-08-11T03:45:29.924Z,0
2018-08-11T03:46:30.002Z,0
2018-08-11T03:47:29.931Z,0
2018-08-11T03:48:30.028Z,0
2018-08-11T03:49:29.931Z,0
2018-08-11T03:50:30.006Z,0
2018-08-11T03:51:29.929Z,0
2018-08-11T03:52:29.891Z,0
2018-08-11T03:53:29.975Z,0
2018-08-11T03:54:29.910Z,0
2018-08-11T03:55:29.879Z,0
2018-08-11T03:56:30.001Z,0
2018-08-11T03:57:29.906Z,0
2018-08-11T03:58:29.976Z,0
2018-08-11T03:59:29.874Z,0
2018-08-11T04:00:29.917Z,0
2018-08-11T04:01:29.908Z,0
2018-08-11T04:02:29.976Z,0
2018-08-11T04:03:29.911Z,0
2018-08-11T04:04:29.908Z,0
2018-08-11T04:05:29.943Z,0
2018-08-11T04:06:30.014Z,0
2018-08-11T04:07:29.915Z,0
2018-08-11T04:08:29.948Z,0
2018-08-11T04:09:29.964Z,0
2018-08-11T04:10:29.927Z,0
2018-08-11T04:11:29.964Z,0
2018-08-11T04:12:29.978Z,0
2018-08-11T04:13:29.999Z,0
2018-08-11T04:14:29.885Z,0
2018-08-11T04:15:29.954Z,0
2018-08-11T04:16:29.977Z,0
2018-08-11T04:17:29.971Z,0
2018-08-11T04:18:29.930Z,0
2018-08-11T04:19:29.915Z,0
2018-08-11T04:20:29.888Z,0
2018-08-11T04:21:29.879Z,0
2018-08-11T04:22:29.925Z,0
2018-08-11T04:23:29.998Z,0
2018-08-11T04:24:29.932Z,0
2018-08-11T04:25:30.018Z,0
2018-08-11T04:26:30.012Z,0
2018-08-11T04:27:29.932Z,0
2018-08-11T04:28:29.990Z,0
2018-08-11T04:29:30.015Z,0
2018-08-11T04:30:30.000Z,0
2018-08-11T04:31:29.999Z,0
2018-08-11T04:32:29.964Z,0
2018-08-11T04:33:30.036Z,0
2018-08-11T04:34:29.967Z,0
2018-08-11T04:35:30.038Z,0
2018-08-11T04:36:29.926Z,0
2018-08-11T04:37:29.967Z,0
2018-08-11T04:38:30.037Z,0
2018-08-11T04:39:29.968Z,0
2018-08-11T04:40:30.039Z,0
2018-08-11T04:41:29.968Z,0
2018-08-11T04:42:29.941Z,0
2018-08-11T04:43:29.906Z,0
2018-08-11T04:44:29.989Z,0
2018-08-11T04:45:29.945Z,0
2018-08-11T04:46:30.027Z,0
2018-08-11T04:47:29.967Z,0
2018-08-11T04:48:30.027Z,0
2018-08-11T04:49:30.038Z,0
2018-08-11T04:50:29.946Z,0
2018-08-11T04:51:29.987Z,0
2018-08-11T04:52:29.978Z,0
2018-08-11T04:53:30.042Z,0
2018-08-11T04:54:29.998Z,0
2018-08-11T04:55:30.047Z,0
2018-08-11T04:56:29.978Z,0
2018-08-11T04:57:30.050Z,0
2018-08-11T04:58:29.974Z,0
2018-08-11T04:59:30.049Z,0
2018-08-11T05:00:29.990Z,0
2018-08-11T05:01:30.056Z,0
2018-08-11T05:02:29.979Z,0
2018-08-11T05:03:30.052Z,0
2018-08-11T05:04:29.983Z,0
2018-08-11T05:05:29.982Z,0
2018-08-11T05:06:30.053Z,0
2018-08-11T05:07:29.980Z,0
2018-08-11T05:08:30.055Z,0
2018-08-11T05:09:29.987Z,0
2018-08-11T05:10:30.064Z,0
2018-08-11T05:11:29.988Z,0
2018-08-11T05:12:30.060Z,0
2018-08-11T05:13:29.989Z,0
2018-08-11T05:14:29.989Z,0
2018-08-11T05:15:30.064Z,0
2018-08-11T05:16:29.990Z,0
2018-08-11T05:17:29.993Z,0
2018-08-11T05:18:29.992Z,0
2018-08-11T05:19:30.065Z,0
2018-08-11T05:20:29.995Z,0
2018-08-11T05:21:29.992Z,0
2018-08-11T05:22:29.994Z,0
2018-08-11T05:23:29.955Z,0
2018-08-11T05:24:30.011Z,0
2018-08-11T05:25:29.929Z,0
2018-08-11T05:26:29.996Z,0
2018-08-11T05:27:30.033Z,0
2018-08-11T05:28:29.990Z,0
2018-08-11T05:29:29.998Z,0
2018-08-11T05:30:30.040Z,0
2018-08-11T05:31:29.949Z,17
2018-08-11T05:32:30.001Z,23
2018-08-11T05:33:30.076Z,32
2018-08-11T05:34:29.994Z,44
2018-08-11T05:35:30.093Z,53
2018-08-11T05:36:30.006Z,58
2018-08-11T05:37:30.072Z,62
2018-08-11T05:38:30.000Z,64
2018-08-11T05:39:30.073Z,59
2018-08-11T05:40:30.074Z,53
2018-08-11T05:41:30.052Z,50
2018-08-11T05:42:30.032Z,46
2018-08-11T05:43:30.090Z,42
2018-08-11T05:44:29.934Z,41
2018-08-11T05:45:30.022Z,36
2018-08-11T05:46:29.974Z,31
2018-08-11T05:47:29.930Z,32
2018-08-11T05:48:29.977Z,37
2018-08-11T05:49:29.917Z,34
2018-08-11T05:50:30.027Z,37
2018-08-11T05:51:30.081Z,33
2018-08-11T05:52:29.970Z,31
2018-08-11T05:53:29.949Z,33
2018-08-11T05:54:29.987Z,35
2018-08-11T05:55:29.985Z,35
2018-08-11T05:56:30.036Z,42
2018-08-11T05:57:30.074Z,48
2018-08-11T05:58:29.950Z,56
2018-08-11T05:59:30.028Z,73
2018-08-11T06:00:29.974Z,79
2018-08-11T06:01:30.038Z,76
2018-08-11T06:02:30.022Z,73
2018-08-11T06:03:30.091Z,64
2018-08-11T06:04:30.021Z,63
2018-08-11T06:05:30.090Z,62
2018-08-11T06:06:30.020Z,57
2018-08-11T06:07:30.093Z,50
2018-08-11T06:08:30.030Z,47
2018-08-11T06:09:30.095Z,42
2018-08-11T06:10:30.110Z,47
2018-08-11T06:11:30.095Z,48
2018-08-11T06:12:30.032Z,49
2018-08-11T06:13:30.100Z,52
2018-08-11T06:14:30.027Z,52
2018-08-11T06:15:30.106Z,53
2018-08-11T06:16:30.032Z,52
2018-08-11T06:17:30.104Z,53
2018-08-11T06:18:30.038Z,54
2018-08-11T06:19:30.105Z,49
2018-08-11T06:20:30.031Z,58
2018-08-11T06:21:30.109Z,55
2018-08-11T06:22:30.035Z,58
2018-08-11T06:23:30.110Z,64
2018-08-11T06:24:30.039Z,71
2018-08-11T06:25:30.111Z,83
2018-08-11T06:26:30.045Z,88
2018-08-11T06:27:30.113Z,107
2018-08-11T06:28:30.046Z,128
2018-08-11T06:29:30.116Z,112
2018-08-11T06:30:30.079Z,150
2018-08-11T06:31:30.143Z,148
2018-08-11T06:32:29.938Z,120
2018-08-11T06:33:29.961Z,81
2018-08-11T06:34:30.054Z,83
2018-08-11T06:35:30.004Z,83
2018-08-11T06:36:29.969Z,75
2018-08-11T06:37:30.062Z,71
2018-08-11T06:38:30.011Z,69
2018-08-11T06:39:30.063Z,68
2018-08-11T06:40:30.151Z,171
2018-08-11T06:41:30.062Z,182
2018-08-11T06:42:30.050Z,182
2018-08-11T06:43:30.172Z,215
2018-08-11T06:44:30.052Z,216
2018-08-11T06:45:30.046Z,230
2018-08-11T06:46:30.170Z,243
2018-08-11T06:47:30.054Z,246
2018-08-11T06:48:30.131Z,255
2018-08-11T06:49:30.052Z,246
2018-08-11T06:50:30.126Z,253
2018-08-11T06:51:30.057Z,256
2018-08-11T06:52:30.123Z,273
2018-08-11T06:53:30.054Z,304
2018-08-11T06:54:30.128Z,305
2018-08-11T06:55:30.065Z,72
2018-08-11T06:56:30.335Z,119
2018-08-11T06:57:30.134Z,90
2018-08-11T06:58:30.131Z,164
2018-08-11T06:59:30.065Z,72
2018-08-11T07:00:30.136Z,322
2018-08-11T07:01:30.073Z,411
2018-08-11T07:02:30.133Z,105
2018-08-11T07:03:30.069Z,93
2018-08-11T07:04:30.135Z,87
2018-08-11T07:05:30.068Z,446
2018-08-11T07:06:30.139Z,413
2018-08-11T07:07:30.066Z,151
2018-08-11T07:08:30.195Z,236
2018-08-11T07:09:30.066Z,224
2018-08-11T07:10:30.165Z,193
2018-08-11T07:11:30.069Z,242
2018-08-11T07:12:30.141Z,521
2018-08-11T07:13:30.078Z,446
2018-08-11T07:14:30.076Z,527
2018-08-11T07:15:30.141Z,174
2018-08-11T07:16:30.111Z,195
2018-08-11T07:17:30.147Z,634
2018-08-11T07:18:30.075Z,303
2018-08-11T07:19:30.152Z,228
2018-08-11T07:20:30.072Z,248
2018-08-11T07:21:30.149Z,263
2018-08-11T07:22:30.095Z,527
2018-08-11T07:23:30.031Z,617
2018-08-11T07:24:30.079Z,148
2018-08-11T07:25:30.030Z,178
2018-08-11T07:26:30.197Z,204
2018-08-11T07:27:30.115Z,370
2018-08-11T07:28:30.115Z,215
2018-08-11T07:29:30.126Z,172
2018-08-11T07:30:30.033Z,174
2018-08-11T07:31:30.096Z,192
2018-08-11T07:32:30.032Z,699
2018-08-11T07:33:30.082Z,704
2018-08-11T07:34:30.142Z,288
2018-08-11T07:35:30.122Z,256
2018-08-11T07:36:30.199Z,232
2018-08-11T07:37:30.022Z,147
2018-08-11T07:38:30.126Z,134
2018-08-11T07:39:30.043Z,698
2018-08-11T07:40:30.082Z,712
2018-08-11T07:41:30.024Z,133
2018-08-11T07:42:30.063Z,702
2018-08-11T07:43:30.185Z,703
2018-08-11T07:44:30.075Z,709
2018-08-11T07:45:30.083Z,745
2018-08-11T07:46:30.109Z,786
2018-08-11T07:47:30.100Z,813
2018-08-11T07:48:30.149Z,833
2018-08-11T07:49:30.129Z,823
2018-08-11T07:50:30.108Z,803
2018-08-11T07:51:30.050Z,752
2018-08-11T07:52:30.139Z,778
2018-08-11T07:53:30.106Z,240
2018-08-11T07:54:30.115Z,754
2018-08-11T07:55:30.135Z,204
2018-08-11T07:56:30.121Z,234
2018-08-11T07:57:30.055Z,231
2018-08-11T07:58:30.138Z,854
2018-08-11T07:59:30.139Z,789
2018-08-11T08:00:30.040Z,184
2018-08-11T08:01:30.173Z,774
2018-08-11T08:02:30.107Z,778
2018-08-11T08:03:30.131Z,790
2018-08-11T08:04:30.158Z,364
2018-08-11T08:05:30.108Z,811
2018-08-11T08:06:30.144Z,803
2018-08-11T08:07:30.132Z,818
2018-08-11T08:08:30.163Z,754
2018-08-11T08:09:30.139Z,793
2018-08-11T08:10:30.146Z,722
2018-08-11T08:11:30.052Z,799
2018-08-11T08:12:30.080Z,804
2018-08-11T08:13:30.173Z,805
2018-08-11T08:14:30.095Z,788
2018-08-11T08:15:30.221Z,798
2018-08-11T08:16:30.151Z,791
2018-08-11T08:17:30.193Z,761
2018-08-11T08:18:30.113Z,885
2018-08-11T08:19:30.045Z,924
2018-08-11T08:20:30.075Z,886
2018-08-11T08:21:30.155Z,849
2018-08-11T08:22:30.144Z,853
2018-08-11T08:23:30.173Z,877
2018-08-11T08:24:30.144Z,813
2018-08-11T08:25:30.158Z,849
2018-08-11T08:26:30.289Z,105
2018-08-11T08:27:30.151Z,116
2018-08-11T08:28:30.096Z,868
2018-08-11T08:29:30.162Z,275
2018-08-11T08:30:30.084Z,908
2018-08-11T08:31:30.110Z,432
2018-08-11T08:32:30.142Z,649
2018-08-11T08:33:30.165Z,938
2018-08-11T08:34:30.108Z,530
2018-08-11T08:35:30.128Z,720
2018-08-11T08:36:30.178Z,325
2018-08-11T08:37:30.130Z,317
2018-08-11T08:38:30.154Z,557
2018-08-11T08:39:30.222Z,218
2018-08-11T08:40:30.072Z,211
2018-08-11T08:41:30.232Z,245
2018-08-11T08:42:30.148Z,298
2018-08-11T08:43:30.088Z,407
2018-08-11T08:44:30.063Z,328
2018-08-11T08:45:30.148Z,354
2018-08-11T08:46:30.153Z,659
2018-08-11T08:47:30.109Z,916
2018-08-11T08:48:30.056Z,763
2018-08-11T08:49:30.065Z,382
2018-08-11T08:50:30.065Z,322
2018-08-11T08:51:30.170Z,428
2018-08-11T08:52:30.121Z,307
2018-08-11T08:53:30.123Z,283
2018-08-11T08:54:30.070Z,285
2018-08-11T08:55:30.094Z,1063
2018-08-11T08:56:30.105Z,1049
2018-08-11T08:57:30.171Z,289
2018-08-11T08:58:30.100Z,277
2018-08-11T08:59:30.176Z,277
2018-08-11T09:00:30.109Z,279
2018-08-11T09:01:30.100Z,273
2018-08-11T09:02:30.144Z,243
2018-08-11T09:03:30.221Z,199
2018-08-11T09:04:30.147Z,166
2018-08-11T09:05:30.217Z,164
2018-08-11T09:06:30.134Z,179
2018-08-11T09:07:30.222Z,181
2018-08-11T09:08:30.148Z,169
2018-08-11T09:09:30.218Z,159
2018-08-11T09:10:30.156Z,153
2018-08-11T09:11:30.221Z,159
2018-08-11T09:12:30.067Z,886
2018-08-11T09:13:30.096Z,976
2018-08-11T09:14:30.122Z,964
2018-08-11T09:15:30.168Z,949
2018-08-11T09:16:30.174Z,939
2018-08-11T09:17:30.078Z,940
2018-08-11T09:18:30.170Z,942
2018-08-11T09:19:30.087Z,938
2018-08-11T09:20:30.083Z,939
2018-08-11T09:21:30.244Z,943
2018-08-11T09:22:30.230Z,920
2018-08-11T09:23:30.156Z,920
2018-08-11T09:24:30.232Z,951
2018-08-11T09:25:30.163Z,952
2018-08-11T09:26:30.233Z,958
2018-08-11T09:27:30.256Z,968
2018-08-11T09:28:30.162Z,978
2018-08-11T09:29:30.323Z,1003
2018-08-11T09:30:30.237Z,601
2018-08-11T09:31:30.170Z,248
2018-08-11T09:32:30.096Z,291
2018-08-11T09:33:30.200Z,265
2018-08-11T09:34:30.217Z,223
2018-08-11T09:35:30.136Z,721
2018-08-11T09:36:30.136Z,877
2018-08-11T09:37:30.188Z,1064
2018-08-11T09:38:30.156Z,1179
2018-08-11T09:39:30.144Z,1215
2018-08-11T09:40:30.244Z,1134
2018-08-11T09:41:30.183Z,842
2018-08-11T09:42:30.177Z,1128
2018-08-11T09:43:30.171Z,251
2018-08-11T09:44:30.177Z,415
2018-08-11T09:45:30.249Z,696
2018-08-11T09:46:30.179Z,188
2018-08-11T09:47:30.251Z,1033
2018-08-11T09:48:30.177Z,1010
2018-08-11T09:49:30.253Z,993
2018-08-11T09:50:30.320Z,994
2018-08-11T09:51:30.252Z,989
2018-08-11T09:52:30.208Z,980
2018-08-11T09:53:30.159Z,980
2018-08-11T09:54:30.120Z,994
2018-08-11T09:55:30.199Z,987
2018-08-11T09:56:30.115Z,991
2018-08-11T09:57:30.123Z,987
2018-08-11T09:58:30.199Z,999
2018-08-11T09:59:30.163Z,1007
2018-08-11T10:00:30.212Z,1019
2018-08-11T10:01:30.166Z,1014
2018-08-11T10:02:30.200Z,1015
2018-08-11T10:03:30.256Z,1041
2018-08-11T10:04:30.230Z,169
2018-08-11T10:05:30.161Z,1034
2018-08-11T10:06:30.162Z,1043
2018-08-11T10:07:30.227Z,1048
2018-08-11T10:08:30.121Z,1049
2018-08-11T10:09:30.174Z,1061
2018-08-11T10:10:30.273Z,1031
2018-08-11T10:11:30.227Z,1030
2018-08-11T10:12:30.198Z,1069
2018-08-11T10:13:30.197Z,1063
2018-08-11T10:14:30.272Z,1044
2018-08-11T10:15:30.196Z,1063
2018-08-11T10:16:30.272Z,153
2018-08-11T10:17:30.230Z,875
2018-08-11T10:18:30.218Z,1101
2018-08-11T10:19:30.299Z,1096
2018-08-11T10:20:30.201Z,1098
2018-08-11T10:21:30.274Z,948
2018-08-11T10:22:30.143Z,1101
2018-08-11T10:23:30.228Z,1082
2018-08-11T10:24:30.232Z,1100
2018-08-11T10:25:30.226Z,1089
2018-08-11T10:26:30.143Z,1076
2018-08-11T10:27:30.236Z,1070
2018-08-11T10:28:30.177Z,1058
2018-08-11T10:29:30.259Z,1073
2018-08-11T10:30:30.234Z,1113
2018-08-11T10:31:30.185Z,1119
2018-08-11T10:32:30.213Z,1145
2018-08-11T10:33:30.277Z,343
2018-08-11T10:34:30.222Z,1056
2018-08-11T10:35:30.287Z,889
2018-08-11T10:36:30.210Z,1131
2018-08-11T10:37:30.283Z,300
2018-08-11T10:38:30.220Z,263
2018-08-11T10:39:30.210Z,243
2018-08-11T10:40:30.283Z,223
2018-08-11T10:41:30.286Z,918
2018-08-11T10:42:30.215Z,301
2018-08-11T10:43:30.290Z,265
2018-08-11T10:44:30.220Z,257
2018-08-11T10:45:30.292Z,242
2018-08-11T10:46:30.218Z,223
2018-08-11T10:47:30.293Z,329
2018-08-11T10:48:30.228Z,249
2018-08-11T10:49:30.296Z,226
2018-08-11T10:50:30.225Z,1174
2018-08-11T10:51:30.294Z,1145
2018-08-11T10:52:30.218Z,1142
2018-08-11T10:53:30.220Z,1145
2018-08-11T10:54:30.295Z,1146
2018-08-11T10:55:30.221Z,1159
2018-08-11T10:56:30.226Z,1144
2018-08-11T10:57:30.314Z,1115
2018-08-11T10:58:30.298Z,1110
2018-08-11T10:59:30.301Z,1109
2018-08-11T11:00:30.213Z,185
2018-08-11T11:01:30.229Z,194
2018-08-11T11:02:30.227Z,308
2018-08-11T11:03:30.301Z,266
2018-08-11T11:04:30.257Z,368
2018-08-11T11:05:30.301Z,1312
2018-08-11T11:06:30.229Z,1140
2018-08-11T11:07:30.304Z,548
2018-08-11T11:08:30.273Z,1332
2018-08-11T11:09:30.306Z,1329
2018-08-11T11:10:30.237Z,1265
2018-08-11T11:11:30.306Z,1183
2018-08-11T11:12:30.270Z,1169
2018-08-11T11:13:30.134Z,1152
2018-08-11T11:14:30.220Z,1145
2018-08-11T11:15:30.132Z,1123
2018-08-11T11:16:30.129Z,1120
2018-08-11T11:17:30.176Z,1117
2018-08-11T11:18:30.221Z,1092
2018-08-11T11:19:30.297Z,1144
2018-08-11T11:20:30.179Z,277
2018-08-11T11:21:30.241Z,291
2018-08-11T11:22:30.140Z,311
2018-08-11T11:23:30.222Z,353
2018-08-11T11:24:30.258Z,364
2018-08-11T11:25:30.356Z,468
2018-08-11T11:26:30.200Z,1245
2018-08-11T11:27:30.300Z,1278
2018-08-11T11:28:30.231Z,1254
2018-08-11T11:29:30.198Z,1196
2018-08-11T11:30:30.282Z,1154
2018-08-11T11:31:30.289Z,1103
2018-08-11T11:32:30.265Z,1091
2018-08-11T11:33:30.198Z,1094
2018-08-11T11:34:30.323Z,1120
2018-08-11T11:35:30.230Z,1106
2018-08-11T11:36:30.325Z,1115
2018-08-11T11:37:30.312Z,1138
2018-08-11T11:38:30.205Z,1122
2018-08-11T11:39:30.232Z,1142
2018-08-11T11:40:30.229Z,1148
2018-08-11T11:41:30.205Z,1159
2018-08-11T11:42:30.231Z,1162
2018-08-11T11:43:30.242Z,252
2018-08-11T11:44:30.298Z,254
2018-08-11T11:45:30.287Z,288
2018-08-11T11:46:30.202Z,371
2018-08-11T11:47:30.233Z,406
2018-08-11T11:48:30.201Z,1284
2018-08-11T11:49:30.240Z,813
2018-08-11T11:50:30.316Z,1252
2018-08-11T11:51:30.196Z,1282
2018-08-11T11:52:30.277Z,1204
2018-08-11T11:53:30.268Z,1141
2018-08-11T11:54:30.273Z,836
2018-08-11T11:55:30.342Z,901
2018-08-11T11:56:30.279Z,1219
2018-08-11T11:57:30.364Z,389
2018-08-11T11:58:30.275Z,343
2018-08-11T11:59:30.271Z,512
2018-08-11T12:00:30.345Z,348
2018-08-11T12:01:30.274Z,326
2018-08-11T12:02:30.347Z,308
2018-08-11T12:03:30.273Z,295
2018-08-11T12:04:30.274Z,295
2018-08-11T12:05:30.350Z,313
2018-08-11T12:06:30.273Z,342
2018-08-11T12:07:30.351Z,396
2018-08-11T12:08:30.276Z,752
2018-08-11T12:09:30.350Z,450
2018-08-11T12:10:30.277Z,444
2018-08-11T12:11:30.351Z,553
2018-08-11T12:12:30.352Z,408
2018-08-11T12:13:30.284Z,448
2018-08-11T12:14:30.313Z,355
2018-08-11T12:15:30.233Z,332
2018-08-11T12:16:30.314Z,1231
2018-08-11T12:17:30.310Z,1202
2018-08-11T12:18:30.190Z,1207
2018-08-11T12:20:30.243Z,746
2018-08-11T12:21:30.260Z,298
2018-08-11T12:22:30.265Z,315
2018-08-11T12:23:30.291Z,538
2018-08-11T12:24:30.302Z,309
2018-08-11T12:25:30.191Z,307
2018-08-11T12:26:30.251Z,319
2018-08-11T12:27:30.301Z,329
2018-08-11T12:28:30.250Z,377
2018-08-11T12:29:30.197Z,832
2018-08-11T12:30:30.307Z,1218
2018-08-11T12:31:30.318Z,1188
2018-08-11T12:32:30.304Z,1104
2018-08-11T12:33:30.263Z,282
2018-08-11T12:34:30.301Z,229
2018-08-11T12:35:30.204Z,217
2018-08-11T12:36:30.317Z,231
2018-08-11T12:37:30.274Z,207
2018-08-11T12:38:30.318Z,212
2018-08-11T12:39:30.328Z,259
2018-08-11T12:40:30.308Z,250
2018-08-11T12:41:30.335Z,269
2018-08-11T12:42:30.229Z,256
2018-08-11T12:43:30.375Z,274
2018-08-11T12:44:30.375Z,256
2018-08-11T12:45:30.396Z,293
2018-08-11T12:46:30.330Z,260
2018-08-11T12:47:30.383Z,271
2018-08-11T12:48:30.311Z,319
2018-08-11T12:49:30.381Z,301
2018-08-11T12:50:30.309Z,314
2018-08-11T12:51:30.379Z,248
2018-08-11T12:52:30.333Z,355
2018-08-11T12:53:30.422Z,1260
2018-08-11T12:54:30.338Z,1240
2018-08-11T12:55:30.334Z,1216
2018-08-11T12:56:30.233Z,1173
2018-08-11T12:57:30.277Z,1152
2018-08-11T12:58:30.219Z,298
2018-08-11T12:59:30.221Z,291
2018-08-11T13:00:30.252Z,784
2018-08-11T13:01:30.360Z,1159
2018-08-11T13:02:30.289Z,1123
2018-08-11T13:03:30.371Z,1110
2018-08-11T13:04:30.313Z,1013
2018-08-11T13:05:30.327Z,497
2018-08-11T13:06:30.315Z,307
2018-08-11T13:07:30.333Z,1027
2018-08-11T13:08:30.333Z,315
2018-08-11T13:09:30.391Z,1104
2018-08-11T13:10:30.314Z,290
2018-08-11T13:11:30.393Z,277
2018-08-11T13:12:30.273Z,265
2018-08-11T13:13:30.298Z,272
2018-08-11T13:14:30.270Z,271
2018-08-11T13:15:30.382Z,277
2018-08-11T13:16:30.309Z,301
2018-08-11T13:17:30.336Z,306
2018-08-11T13:18:30.363Z,289
2018-08-11T13:19:30.369Z,282
2018-08-11T13:20:30.368Z,293
2018-08-11T13:21:30.363Z,286
2018-08-11T13:22:30.312Z,296
2018-08-11T13:23:30.328Z,340
2018-08-11T13:24:30.402Z,377
2018-08-11T13:25:30.332Z,308
2018-08-11T13:26:30.405Z,1080
2018-08-11T13:27:30.329Z,1015
2018-08-11T13:28:30.409Z,233
2018-08-11T13:29:30.330Z,425
2018-08-11T13:30:30.410Z,1037
2018-08-11T13:31:30.331Z,325
2018-08-11T13:32:30.408Z,1014
2018-08-11T13:33:30.332Z,945
2018-08-11T13:34:30.411Z,223
2018-08-11T13:35:30.342Z,277
2018-08-11T13:36:30.412Z,198
2018-08-11T13:37:30.345Z,193
2018-08-11T13:38:30.432Z,209
2018-08-11T13:39:30.339Z,232
2018-08-11T13:40:30.340Z,438
2018-08-11T13:41:30.413Z,271
2018-08-11T13:42:30.350Z,283
2018-08-11T13:43:30.358Z,260
2018-08-11T13:44:30.379Z,242
2018-08-11T13:45:30.424Z,229
2018-08-11T13:46:30.288Z,323
2018-08-11T13:47:30.346Z,265
2018-08-11T13:48:30.285Z,273
2018-08-11T13:49:30.325Z,259
2018-08-11T13:50:30.277Z,792
2018-08-11T13:51:30.375Z,480
2018-08-11T13:52:30.319Z,927
2018-08-11T13:53:30.359Z,1013
2018-08-11T13:54:30.412Z,1035
2018-08-11T13:55:30.324Z,1032
2018-08-11T13:56:30.364Z,408
2018-08-11T13:57:30.323Z,989
2018-08-11T13:58:30.285Z,995
2018-08-11T13:59:30.339Z,1003
2018-08-11T14:00:30.412Z,994
2018-08-11T14:01:30.388Z,989
2018-08-11T14:02:30.389Z,984
2018-08-11T14:03:30.416Z,967
2018-08-11T14:04:30.397Z,763
2018-08-11T14:05:30.328Z,279
2018-08-11T14:06:30.329Z,261
2018-08-11T14:07:30.349Z,785
2018-08-11T14:08:30.356Z,730